Time;durP1;ratioP1;P1;durP2;ratioP2;P2;SDS_P1;SDS_P2;PMS_P1;PMS_P2;Temp;Humidity;BMP_temperature;BMP_pressure;BME280_temperature;BME280_humidity;BME280_pressure;Samples;Min_cycle;Max_cycle;Signal;HPM_P1;HPM_P2
2023/04/04 00:00:13;;;;;;;5.03;2.33;;;;;;;;;;5056473;28;20069;-22
2023/04/04 00:02:39;;;;;;;5.55;1.67;;;;;;;;;;5056089;28;20036;-22
2023/04/04 00:05:09;;;;;;;5.68;1.88;;;;;;;;;;5056756;28;20112;-22
2023/04/04 00:07:35;;;;;;;8.52;2.38;;;;;;;;;;5056301;28;20029;-24
2023/04/04 00:10:01;;;;;;;2.97;1.70;;;;;;;;;;5056226;28;20029;-24
2023/04/04 00:12:27;;;;;;;7.72;2.13;;;;;;;;;;5056405;28;20065;-22
2023/04/04 00:14:54;;;;;;;2.97;1.65;;;;;;;;;;5056254;28;20021;-23
2023/04/04 00:17:20;;;;;;;3.42;1.23;;;;;;;;;;5056462;28;20037;-23
2023/04/04 00:19:46;;;;;;;1.65;1.30;;;;;;;;;;5056071;28;20452;-23
2023/04/04 00:22:12;;;;;;;3.00;1.48;;;;;;;;;;5056036;28;20040;-22
2023/04/04 00:24:39;;;;;;;2.78;1.67;;;;;;;;;;5056077;28;20146;-24
2023/04/04 00:27:05;;;;;;;6.32;3.08;;;;;;;;;;5056315;28;20025;-24
2023/04/04 00:29:33;;;;;;;4.90;1.55;;;;;;;;;;5055901;28;20451;-23
2023/04/04 00:31:59;;;;;;;5.38;2.47;;;;;;;;;;5056110;28;20040;-23
2023/04/04 00:34:25;;;;;;;3.55;2.15;;;;;;;;;;5056122;28;20020;-24
2023/04/04 00:36:52;;;;;;;2.67;1.48;;;;;;;;;;5056090;28;20039;-24
2023/04/04 00:39:18;;;;;;;5.47;1.67;;;;;;;;;;5055746;28;20044;-23
2023/04/04 00:41:45;;;;;;;2.78;1.52;;;;;;;;;;5056188;28;20414;-24
2023/04/04 00:44:11;;;;;;;7.60;1.92;;;;;;;;;;5055657;28;20476;-23
2023/04/04 00:46:37;;;;;;;3.03;2.08;;;;;;;;;;5055630;28;20091;-24
2023/04/04 00:49:03;;;;;;;1.42;1.30;;;;;;;;;;5056025;28;20029;-23
2023/04/04 00:51:29;;;;;;;5.75;1.98;;;;;;;;;;5055809;28;20078;-22
2023/04/04 00:53:56;;;;;;;4.15;1.90;;;;;;;;;;5055369;28;20447;-24
2023/04/04 00:56:22;;;;;;;3.30;1.77;;;;;;;;;;5054520;28;20017;-23
2023/04/04 00:58:48;;;;;;;5.75;1.67;;;;;;;;;;5055571;28;20040;-24
2023/04/04 01:01:15;;;;;;;3.28;1.58;;;;;;;;;;5055370;28;20027;-23
2023/04/04 01:03:41;;;;;;;3.47;1.90;;;;;;;;;;5055055;28;20420;-23
2023/04/04 01:06:08;;;;;;;6.05;2.75;;;;;;;;;;5055320;28;20025;-23
2023/04/04 01:08:36;;;;;;;3.70;2.13;;;;;;;;;;5055496;28;20451;-24
2023/04/04 01:11:03;;;;;;;4.63;2.55;;;;;;;;;;5055350;28;20047;-22
2023/04/04 01:13:29;;;;;;;4.10;1.42;;;;;;;;;;5055116;28;20032;-23
2023/04/04 01:15:55;;;;;;;5.47;1.92;;;;;;;;;;5055175;28;20052;-24
2023/04/04 01:18:22;;;;;;;2.13;1.45;;;;;;;;;;5055089;28;20028;-24
2023/04/04 01:20:57;;;;;;;2.15;1.45;;;;;;;;;;5055262;28;20032;-23
2023/04/04 01:23:24;;;;;;;5.90;2.22;;;;;;;;;;5055463;28;20099;-22
2023/04/04 01:25:59;;;;;;;5.22;1.70;;;;;;;;;;5055215;28;20029;-24
2023/04/04 01:28:26;;;;;;;2.10;1.65;;;;;;;;;;5055172;28;20398;-22
2023/04/04 01:30:52;;;;;;;3.22;1.55;;;;;;;;;;5054718;28;20033;-23
2023/04/04 01:33:40;;;;;;;3.42;1.73;;;;;;;;;;5054740;28;20394;-22
2023/04/04 01:36:13;;;;;;;17.67;1.80;;;;;;;;;;5055030;28;20040;-22
2023/04/04 01:38:52;;;;;;;2.08;1.50;;;;;;;;;;5054789;28;20021;-24
2023/04/04 01:41:19;;;;;;;4.05;2.08;;;;;;;;;;5055256;28;20078;-23
2023/04/04 01:43:46;;;;;;;11.05;4.07;;;;;;;;;;5054832;28;20035;-22
2023/04/04 01:46:12;;;;;;;6.90;2.38;;;;;;;;;;5054884;28;20369;-22
2023/04/04 01:48:38;;;;;;;4.28;1.30;;;;;;;;;;5054821;28;20050;-22
2023/04/04 01:51:05;;;;;;;2.35;1.40;;;;;;;;;;5054496;28;20037;-23
2023/04/04 01:53:31;;;;;;;2.33;1.60;;;;;;;;;;5054734;28;20125;-24
2023/04/04 01:55:57;;;;;;;4.28;1.60;;;;;;;;;;5036954;28;20032;-24
2023/04/04 01:58:23;;;;;;;1.40;1.30;;;;;;;;;;5054768;28;20029;-23
2023/04/04 02:00:49;;;;;;;3.38;1.60;;;;;;;;;;5054761;28;20083;-24
2023/04/04 02:03:15;;;;;;;3.60;1.95;;;;;;;;;;5054185;28;20049;-22
2023/04/04 02:05:41;;;;;;;2.60;1.55;;;;;;;;;;5054724;28;20374;-22
2023/04/04 02:08:07;;;;;;;2.03;1.58;;;;;;;;;;5058158;28;20029;-24
2023/04/04 02:10:33;;;;;;;3.45;2.42;;;;;;;;;;5040915;28;20025;-23
2023/04/04 02:12:59;;;;;;;2.05;1.38;;;;;;;;;;5058471;28;20036;-24
2023/04/04 02:15:26;;;;;;;3.15;1.40;;;;;;;;;;5058742;28;20094;-24
2023/04/04 02:17:52;;;;;;;2.97;1.55;;;;;;;;;;5058675;28;20021;-24
2023/04/04 02:20:19;;;;;;;2.60;1.60;;;;;;;;;;5058398;28;20029;-23
2023/04/04 02:22:52;;;;;;;3.13;1.50;;;;;;;;;;5040659;28;20460;-25
2023/04/04 02:25:18;;;;;;;4.10;1.67;;;;;;;;;;5058534;28;20029;-23
2023/04/04 02:27:44;;;;;;;5.80;1.65;;;;;;;;;;5058512;28;20039;-24
2023/04/04 02:30:11;;;;;;;2.67;1.80;;;;;;;;;;5058132;28;20025;-23
2023/04/04 02:32:37;;;;;;;1.70;1.20;;;;;;;;;;5058647;28;20024;-23
2023/04/04 02:35:04;;;;;;;2.75;1.55;;;;;;;;;;5058417;28;20025;-22
2023/04/04 02:37:30;;;;;;;3.20;1.58;;;;;;;;;;5058608;28;20029;-23
2023/04/04 02:39:56;;;;;;;1.90;1.35;;;;;;;;;;5058124;28;20094;-23
2023/04/04 02:42:22;;;;;;;2.15;1.60;;;;;;;;;;5058210;28;20025;-22
2023/04/04 02:44:48;;;;;;;2.88;1.83;;;;;;;;;;5057906;28;20090;-22
2023/04/04 02:47:15;;;;;;;3.55;1.40;;;;;;;;;;5058209;28;20308;-23
2023/04/04 02:49:41;;;;;;;4.82;1.42;;;;;;;;;;5058018;28;20116;-22
2023/04/04 02:52:07;;;;;;;4.32;1.42;;;;;;;;;;5057714;28;20024;-23
2023/04/04 02:54:33;;;;;;;4.13;2.03;;;;;;;;;;5058021;28;20021;-25
2023/04/04 02:57:00;;;;;;;5.80;1.75;;;;;;;;;;5058012;28;20091;-24
2023/04/04 02:59:26;;;;;;;5.32;1.73;;;;;;;;;;5057949;28;20044;-23
2023/04/04 03:01:52;;;;;;;2.00;1.23;;;;;;;;;;5057820;28;20025;-23
2023/04/04 03:04:18;;;;;;;3.78;2.15;;;;;;;;;;5057382;28;20060;-21
2023/04/04 03:06:47;;;;;;;6.15;1.75;;;;;;;;;;5057787;28;20047;-22
2023/04/04 03:09:13;;;;;;;2.30;1.65;;;;;;;;;;5057669;28;20021;-22
2023/04/04 03:11:39;;;;;;;4.80;1.45;;;;;;;;;;5057443;28;20032;-24
2023/04/04 03:14:06;;;;;;;3.20;1.50;;;;;;;;;;5057328;28;20029;-23
2023/04/04 03:16:32;;;;;;;2.92;1.50;;;;;;;;;;5057397;28;20013;-23
2023/04/04 03:18:58;;;;;;;3.05;1.30;;;;;;;;;;5056468;28;20379;-23
2023/04/04 03:21:25;;;;;;;3.15;1.52;;;;;;;;;;5057287;28;20025;-23
2023/04/04 03:23:51;;;;;;;3.25;1.27;;;;;;;;;;5057207;28;20534;-22
2023/04/04 03:26:18;;;;;;;6.20;2.13;;;;;;;;;;5057500;28;20360;-23
2023/04/04 03:28:44;;;;;;;2.17;1.80;;;;;;;;;;5057129;28;20048;-22
2023/04/04 03:31:10;;;;;;;1.23;1.00;;;;;;;;;;5057005;28;20029;-24
2023/04/04 03:33:41;;;;;;;4.03;1.38;;;;;;;;;;5057266;28;20099;-24
2023/04/04 03:36:14;;;;;;;1.85;1.15;;;;;;;;;;5057286;28;20082;-23
2023/04/04 03:38:40;;;;;;;2.35;1.30;;;;;;;;;;5057257;28;20025;-24
2023/04/04 03:41:07;;;;;;;2.53;1.50;;;;;;;;;;5056842;28;20029;-24
2023/04/04 03:43:33;;;;;;;1.90;1.70;;;;;;;;;;5056961;28;20392;-24
2023/04/04 03:46:03;;;;;;;1.15;1.00;;;;;;;;;;5057087;28;20033;-24
2023/04/04 03:48:29;;;;;;;5.88;1.52;;;;;;;;;;5056729;28;20036;-23
2023/04/04 03:50:56;;;;;;;2.25;1.48;;;;;;;;;;5056951;28;20029;-24
2023/04/04 03:53:23;;;;;;;1.98;1.45;;;;;;;;;;5056803;28;20362;-23
2023/04/04 03:55:49;;;;;;;2.15;1.30;;;;;;;;;;5056851;28;20031;-23
2023/04/04 03:58:15;;;;;;;4.93;1.40;;;;;;;;;;5057039;28;20025;-24
2023/04/04 04:00:41;;;;;;;4.45;1.90;;;;;;;;;;5056475;28;20471;-23
2023/04/04 04:03:07;;;;;;;2.38;1.40;;;;;;;;;;5056067;28;20084;-23
2023/04/04 04:05:33;;;;;;;1.27;1.17;;;;;;;;;;5056637;28;20364;-24
2023/04/04 04:07:59;;;;;;;2.15;1.30;;;;;;;;;;5056591;28;20091;-24
2023/04/04 04:10:26;;;;;;;2.97;1.73;;;;;;;;;;5056081;28;20029;-24
2023/04/04 04:12:52;;;;;;;3.10;1.55;;;;;;;;;;5056293;28;20108;-23
2023/04/04 04:15:18;;;;;;;3.30;1.67;;;;;;;;;;5056337;28;20017;-23
2023/04/04 04:17:44;;;;;;;6.47;1.95;;;;;;;;;;5038279;28;20436;-23
2023/04/04 04:20:11;;;;;;;3.35;1.73;;;;;;;;;;5055906;28;20036;-24
2023/04/04 04:22:37;;;;;;;2.17;1.50;;;;;;;;;;5055858;28;20104;-24
2023/04/04 04:25:03;;;;;;;6.88;1.73;;;;;;;;;;5056480;28;20390;-24
2023/04/04 04:27:30;;;;;;;5.38;1.75;;;;;;;;;;5056256;28;20143;-24
2023/04/04 04:29:56;;;;;;;2.50;1.27;;;;;;;;;;5055827;28;20112;-24
2023/04/04 04:32:22;;;;;;;5.93;1.50;;;;;;;;;;5055447;28;20021;-24
2023/04/04 04:34:48;;;;;;;2.38;1.42;;;;;;;;;;5055702;28;20486;-24
2023/04/04 04:37:14;;;;;;;2.78;1.42;;;;;;;;;;5056041;28;20036;-24
2023/04/04 04:39:40;;;;;;;1.98;1.42;;;;;;;;;;5055892;28;20025;-25
2023/04/04 04:42:07;;;;;;;5.75;1.80;;;;;;;;;;5055492;28;20095;-24
2023/04/04 04:44:33;;;;;;;6.00;2.60;;;;;;;;;;5055566;28;20029;-24
2023/04/04 04:46:59;;;;;;;3.33;2.40;;;;;;;;;;5055546;28;20032;-25
2023/04/04 04:49:26;;;;;;;6.60;1.92;;;;;;;;;;5055363;28;20017;-25
2023/04/04 04:51:52;;;;;;;5.25;2.85;;;;;;;;;;5055402;28;20048;-25
2023/04/04 04:54:18;;;;;;;2.08;1.45;;;;;;;;;;5056099;28;20041;-25
2023/04/04 04:56:45;;;;;;;8.20;1.55;;;;;;;;;;5055819;28;20499;-25
2023/04/04 04:59:11;;;;;;;3.47;2.08;;;;;;;;;;5055588;28;20025;-24
2023/04/04 05:01:38;;;;;;;4.75;1.50;;;;;;;;;;5055238;28;20036;-25
2023/04/04 05:04:04;;;;;;;5.70;1.65;;;;;;;;;;5055026;28;20045;-25
2023/04/04 05:06:30;;;;;;;3.25;1.77;;;;;;;;;;5037547;28;20021;-25
2023/04/04 05:08:56;;;;;;;5.20;2.35;;;;;;;;;;5055134;28;20048;-25
2023/04/04 05:11:22;;;;;;;1.92;1.33;;;;;;;;;;5055050;28;20021;-24
2023/04/04 05:13:48;;;;;;;4.45;1.73;;;;;;;;;;5055066;28;20076;-26
2023/04/04 05:16:15;;;;;;;5.80;1.67;;;;;;;;;;5054950;28;20043;-25
2023/04/04 05:18:41;;;;;;;7.97;2.20;;;;;;;;;;5055140;28;20099;-25
2023/04/04 05:21:08;;;;;;;5.43;1.60;;;;;;;;;;5055120;28;20039;-25
2023/04/04 05:23:34;;;;;;;3.13;1.20;;;;;;;;;;5037460;28;20482;-25
2023/04/04 05:26:00;;;;;;;3.65;1.60;;;;;;;;;;5055052;28;20406;-25
2023/04/04 05:28:26;;;;;;;7.75;2.17;;;;;;;;;;5054985;28;20028;-25
2023/04/04 05:30:53;;;;;;;1.88;1.45;;;;;;;;;;5054673;28;20029;-25
2023/04/04 05:33:19;;;;;;;7.22;2.05;;;;;;;;;;5054898;28;20452;-25
2023/04/04 05:35:45;;;;;;;3.30;1.65;;;;;;;;;;5054862;28;20029;-25
2023/04/04 05:38:12;;;;;;;8.85;1.63;;;;;;;;;;5054566;28;20029;-25
2023/04/04 05:40:38;;;;;;;5.60;2.17;;;;;;;;;;5054613;28;20033;-25
2023/04/04 05:43:04;;;;;;;12.65;2.03;;;;;;;;;;5054407;28;20029;-25
2023/04/04 05:45:30;;;;;;;2.83;1.40;;;;;;;;;;5054770;28;20040;-25
2023/04/04 05:47:57;;;;;;;3.33;1.58;;;;;;;;;;5036888;28;20028;-26
2023/04/04 05:50:23;;;;;;;5.85;1.45;;;;;;;;;;5036809;28;20070;-25
2023/04/04 05:52:49;;;;;;;8.85;1.80;;;;;;;;;;5054382;28;20064;-26
2023/04/04 05:55:15;;;;;;;10.82;2.53;;;;;;;;;;5054456;28;20036;-26
2023/04/04 05:57:51;;;;;;;8.73;2.75;;;;;;;;;;5054211;28;20168;-25
2023/04/04 06:00:18;;;;;;;5.95;1.90;;;;;;;;;;5054278;28;20409;-26
2023/04/04 06:02:44;;;;;;;4.93;1.65;;;;;;;;;;5054239;28;20035;-26
2023/04/04 06:05:11;;;;;;;7.40;1.50;;;;;;;;;;5054644;28;20037;-36
2023/04/04 06:07:37;;;;;;;2.95;1.58;;;;;;;;;;5054562;28;20387;-26
2023/04/04 06:10:04;;;;;;;5.80;1.83;;;;;;;;;;5054196;28;20025;-25
2023/04/04 06:12:30;;;;;;;3.47;1.58;;;;;;;;;;5054181;28;20036;-25
2023/04/04 06:14:56;;;;;;;3.67;1.67;;;;;;;;;;5054295;28;20022;-25
2023/04/04 06:17:22;;;;;;;2.63;1.70;;;;;;;;;;5054210;28;20039;-25
2023/04/04 06:19:48;;;;;;;5.80;1.63;;;;;;;;;;5054131;28;20471;-25
2023/04/04 06:22:16;;;;;;;5.65;2.15;;;;;;;;;;5036481;28;20029;-26
2023/04/04 06:24:42;;;;;;;6.20;2.17;;;;;;;;;;5054407;28;20351;-26
2023/04/04 06:27:08;;;;;;;5.18;1.50;;;;;;;;;;5054085;28;20024;-26
2023/04/04 06:29:35;;;;;;;11.18;1.92;;;;;;;;;;5054049;28;20054;-25
2023/04/04 06:32:01;;;;;;;5.00;2.00;;;;;;;;;;5053989;28;20032;-26
2023/04/04 06:34:27;;;;;;;5.32;1.55;;;;;;;;;;5053995;28;20033;-26
2023/04/04 06:36:54;;;;;;;5.93;1.30;;;;;;;;;;5054330;28;20017;-25
2023/04/04 06:39:20;;;;;;;2.97;1.73;;;;;;;;;;5054319;28;20029;-25
2023/04/04 06:41:47;;;;;;;5.05;1.40;;;;;;;;;;5053993;28;20079;-25
2023/04/04 06:44:14;;;;;;;5.65;1.73;;;;;;;;;;5053967;28;20109;-25
2023/04/04 06:46:40;;;;;;;5.22;2.17;;;;;;;;;;5036614;28;20075;-26
2023/04/04 06:49:06;;;;;;;3.75;1.60;;;;;;;;;;5053973;28;20087;-25
2023/04/04 06:51:35;;;;;;;3.20;1.88;;;;;;;;;;5053902;28;20057;-26
2023/04/04 06:54:01;;;;;;;8.40;1.90;;;;;;;;;;5056916;28;20056;-25
2023/04/04 06:56:28;;;;;;;9.57;1.83;;;;;;;;;;5057608;28;20036;-26
2023/04/04 06:58:54;;;;;;;5.90;1.63;;;;;;;;;;5057666;28;20024;-25
2023/04/04 07:01:20;;;;;;;8.57;1.92;;;;;;;;;;5057541;28;20044;-26
2023/04/04 07:03:46;;;;;;;7.15;1.63;;;;;;;;;;5057218;28;20048;-25
2023/04/04 07:06:12;;;;;;;6.90;1.70;;;;;;;;;;5040122;28;20116;-25
2023/04/04 07:08:38;;;;;;;9.40;1.92;;;;;;;;;;5057698;28;20107;-25
2023/04/04 07:11:06;;;;;;;3.05;1.70;;;;;;;;;;5057314;28;20119;-25
2023/04/04 07:13:34;;;;;;;5.20;1.50;;;;;;;;;;5057246;28;20032;-26
2023/04/04 07:16:00;;;;;;;7.63;1.67;;;;;;;;;;5057557;28;20380;-25
2023/04/04 07:18:27;;;;;;;5.15;1.58;;;;;;;;;;5057237;28;20021;-25
2023/04/04 07:20:53;;;;;;;6.88;1.75;;;;;;;;;;5057229;28;20467;-25
2023/04/04 07:23:19;;;;;;;7.40;1.65;;;;;;;;;;5057000;28;20029;-25
2023/04/04 07:25:46;;;;;;;6.82;1.85;;;;;;;;;;5057068;28;20029;-25
2023/04/04 07:28:12;;;;;;;3.83;1.85;;;;;;;;;;5056962;28;20025;-25
2023/04/04 07:30:38;;;;;;;11.65;2.10;;;;;;;;;;5056996;28;20116;-26
2023/04/04 07:33:04;;;;;;;10.93;2.00;;;;;;;;;;5039320;28;20392;-25
2023/04/04 07:35:30;;;;;;;10.02;1.73;;;;;;;;;;5057172;28;20083;-26
2023/04/04 07:37:57;;;;;;;7.30;2.20;;;;;;;;;;5057135;28;20532;-25
2023/04/04 07:40:23;;;;;;;7.65;1.83;;;;;;;;;;5057028;28;20035;-25
2023/04/04 07:42:53;;;;;;;10.90;2.83;;;;;;;;;;5056900;28;20051;-26
2023/04/04 07:45:20;;;;;;;3.05;1.55;;;;;;;;;;5056973;28;20431;-25
2023/04/04 07:47:47;;;;;;;4.15;1.58;;;;;;;;;;5056959;28;20466;-26
2023/04/04 07:50:13;;;;;;;6.00;2.47;;;;;;;;;;5056841;28;20021;-26
2023/04/04 07:52:40;;;;;;;15.80;2.05;;;;;;;;;;5056518;28;20025;-25
2023/04/04 07:55:06;;;;;;;4.47;2.15;;;;;;;;;;5056719;28;20036;-26
2023/04/04 07:57:39;;;;;;;7.25;2.00;;;;;;;;;;5056380;28;20028;-26
2023/04/04 08:00:08;;;;;;;8.38;1.65;;;;;;;;;;5056553;28;20044;-26
2023/04/04 08:02:35;;;;;;;11.63;2.22;;;;;;;;;;5038631;28;20518;-26
2023/04/04 08:05:02;;;;;;;7.07;1.73;;;;;;;;;;5056150;28;20033;-26
2023/04/04 08:07:29;;;;;;;4.85;1.67;;;;;;;;;;5056546;28;20072;-26
2023/04/04 08:09:55;;;;;;;3.45;1.52;;;;;;;;;;5056234;28;20108;-26
2023/04/04 08:12:21;;;;;;;7.80;1.48;;;;;;;;;;5056398;28;20096;-26
2023/04/04 08:14:47;;;;;;;7.03;1.60;;;;;;;;;;5056211;28;20017;-26
2023/04/04 08:17:17;;;;;;;9.60;1.77;;;;;;;;;;5056423;28;20020;-26
2023/04/04 08:19:44;;;;;;;4.57;1.45;;;;;;;;;;5056934;28;20086;-25
2023/04/04 08:44:03;;;;;;;6.50;2.10;;;;;;;;;;5037423;28;20055;-26
2023/04/04 08:46:30;;;;;;;6.63;1.80;;;;;;;;;;5055888;28;20351;-24
2023/04/04 08:48:56;;;;;;;12.30;2.63;;;;;;;;;;5056044;28;20036;-24
2023/04/04 08:51:25;;;;;;;5.20;1.77;;;;;;;;;;5055362;28;20070;-24
2023/04/04 08:53:51;;;;;;;7.95;1.80;;;;;;;;;;5056209;28;20056;-24
2023/04/04 08:56:17;;;;;;;8.52;3.15;;;;;;;;;;5055368;28;20094;-24
2023/04/04 08:58:43;;;;;;;7.47;1.70;;;;;;;;;;5055609;28;20191;-25
2023/04/04 09:01:10;;;;;;;12.18;2.35;;;;;;;;;;5055311;28;20112;-25
2023/04/04 09:03:37;;;;;;;3.22;1.10;;;;;;;;;;5055230;28;20120;-24
2023/04/04 09:06:04;;;;;;;4.75;2.53;;;;;;;;;;5055305;28;20021;-25
2023/04/04 09:08:30;;;;;;;11.20;2.10;;;;;;;;;;5055251;28;20033;-24
2023/04/04 09:10:57;;;;;;;7.47;1.60;;;;;;;;;;5037617;28;20104;-25
2023/04/04 09:13:23;;;;;;;5.85;2.00;;;;;;;;;;5055599;28;20025;-25
2023/04/04 09:15:56;;;;;;;4.25;1.92;;;;;;;;;;5054321;28;20024;-24
2023/04/04 09:18:22;;;;;;;6.00;1.42;;;;;;;;;;5037396;28;20112;-25
2023/04/04 09:20:49;;;;;;;2.47;1.45;;;;;;;;;;5054952;28;20056;-25
2023/04/04 09:23:19;;;;;;;3.97;1.30;;;;;;;;;;5055068;28;20100;-26
2023/04/04 09:25:47;;;;;;;3.85;1.90;;;;;;;;;;5054657;28;20060;-25
2023/04/04 09:28:14;;;;;;;3.42;1.70;;;;;;;;;;5054914;28;20055;-25
2023/04/04 09:30:40;;;;;;;6.40;1.70;;;;;;;;;;5054679;28;20466;-25
2023/04/04 09:33:08;;;;;;;12.50;1.50;;;;;;;;;;5054949;28;20356;-25
2023/04/04 09:35:38;;;;;;;6.15;1.58;;;;;;;;;;5037148;28;20422;-25
2023/04/04 09:38:07;;;;;;;13.18;1.77;;;;;;;;;;5054677;28;20398;-25
2023/04/04 09:40:35;;;;;;;6.63;1.88;;;;;;;;;;5054642;28;20025;-25
2023/04/04 09:43:02;;;;;;;3.55;1.45;;;;;;;;;;5054484;28;20087;-25
2023/04/04 09:45:31;;;;;;;3.67;1.30;;;;;;;;;;5054523;28;20068;-25
2023/04/04 09:47:58;;;;;;;4.45;1.55;;;;;;;;;;5054668;28;20056;-25
2023/04/04 09:50:27;;;;;;;3.85;1.65;;;;;;;;;;5054347;28;20047;-25
2023/04/04 09:52:55;;;;;;;4.72;1.38;;;;;;;;;;5036851;28;20027;-25
2023/04/04 09:55:30;;;;;;;5.53;1.70;;;;;;;;;;5054587;28;20021;-25
2023/04/04 09:57:56;;;;;;;3.85;1.48;;;;;;;;;;5054493;28;20071;-25
2023/04/04 10:00:22;;;;;;;6.78;1.92;;;;;;;;;;5054356;28;20108;-25
2023/04/04 10:02:49;;;;;;;3.83;1.85;;;;;;;;;;5054321;28;20111;-25
2023/04/04 10:05:16;;;;;;;8.13;2.00;;;;;;;;;;5054361;28;20444;-25
2023/04/04 10:07:43;;;;;;;6.07;1.77;;;;;;;;;;5054119;28;20430;-25
2023/04/04 10:10:09;;;;;;;3.53;2.47;;;;;;;;;;5054151;28;20513;-25
2023/04/04 10:12:38;;;;;;;2.47;1.30;;;;;;;;;;5054204;28;20025;-25
2023/04/04 10:15:04;;;;;;;5.82;1.70;;;;;;;;;;5054178;28;20032;-25
2023/04/04 10:17:35;;;;;;;5.80;1.95;;;;;;;;;;5054245;28;20025;-25
2023/04/04 10:20:04;;;;;;;10.27;2.03;;;;;;;;;;5054740;28;20029;-25
2023/04/04 10:22:30;;;;;;;5.68;1.70;;;;;;;;;;5053912;28;20512;-25
2023/04/04 10:24:57;;;;;;;2.53;1.60;;;;;;;;;;5054122;28;20039;-25
2023/04/04 10:27:24;;;;;;;5.32;1.77;;;;;;;;;;5054564;28;20059;-25
2023/04/04 10:29:50;;;;;;;5.60;1.77;;;;;;;;;;5058267;28;20033;-25
2023/04/04 10:32:23;;;;;;;14.88;2.60;;;;;;;;;;5058014;28;20100;-25
2023/04/04 10:34:56;;;;;;;10.82;1.77;;;;;;;;;;5057938;28;20035;-25
2023/04/04 10:37:28;;;;;;;6.18;1.80;;;;;;;;;;5058303;28;20031;-25
2023/04/04 10:40:07;;;;;;;6.47;2.03;;;;;;;;;;5057833;28;20033;-25
2023/04/04 10:42:38;;;;;;;6.63;1.67;;;;;;;;;;5057699;28;20471;-25
2023/04/04 10:45:04;;;;;;;;;;;;;;;;;;5058092;28;20025;-25
2023/04/04 10:47:31;;;;;;;3.22;1.63;;;;;;;;;;5040164;28;19905;-25
2023/04/04 10:49:57;;;;;;;6.50;2.20;;;;;;;;;;5057786;28;20456;-25
2023/04/04 10:52:24;;;;;;;6.15;1.52;;;;;;;;;;5057908;28;20025;-25
2023/04/04 10:54:52;;;;;;;5.15;2.30;;;;;;;;;;5057604;28;20025;-25
2023/04/04 10:57:18;;;;;;;4.50;1.40;;;;;;;;;;5057410;28;20028;-25
2023/04/04 10:59:57;;;;;;;7.65;1.77;;;;;;;;;;5039960;28;20032;-25
2023/04/04 11:02:43;;;;;;;8.10;2.17;;;;;;;;;;5057392;28;20025;-25
2023/04/04 11:05:14;;;;;;;10.30;1.90;;;;;;;;;;5057391;28;20096;-25
2023/04/04 11:07:41;;;;;;;4.72;1.33;;;;;;;;;;5057815;28;20032;-25
2023/04/04 11:10:21;;;;;;;8.65;1.73;;;;;;;;;;5057416;28;20036;-25
2023/04/04 11:12:53;;;;;;;4.95;1.45;;;;;;;;;;5057915;28;20378;-25
2023/04/04 11:15:21;;;;;;;5.57;1.70;;;;;;;;;;5057277;28;20091;-25
2023/04/04 11:18:01;;;;;;;4.13;1.77;;;;;;;;;;5057203;28;20021;-25
2023/04/04 11:20:32;;;;;;;4.25;2.15;;;;;;;;;;5057241;28;20021;-25
2023/04/04 11:23:05;;;;;;;4.75;1.75;;;;;;;;;;5057160;28;20029;-25
2023/04/04 11:25:32;;;;;;;7.90;1.80;;;;;;;;;;5057612;28;20053;-25
2023/04/04 11:27:58;;;;;;;4.20;1.98;;;;;;;;;;5056990;28;20462;-25
2023/04/04 11:30:27;;;;;;;6.63;1.80;;;;;;;;;;5057155;28;20123;-25
2023/04/04 11:32:57;;;;;;;4.50;2.25;;;;;;;;;;5039430;28;20016;-25
2023/04/04 11:35:23;;;;;;;11.93;2.78;;;;;;;;;;5057364;28;20402;-25
2023/04/04 11:37:52;;;;;;;3.58;1.95;;;;;;;;;;5039256;28;20363;-26
2023/04/04 11:40:19;;;;;;;10.70;2.22;;;;;;;;;;5055670;28;20025;-24
2023/04/04 11:42:51;;;;;;;10.43;2.60;;;;;;;;;;5056500;28;20059;-24
2023/04/04 11:45:21;;;;;;;5.97;2.10;;;;;;;;;;5056554;28;20468;-24
2023/04/04 11:47:47;;;;;;;8.05;2.22;;;;;;;;;;5039052;28;20466;-26
2023/04/04 11:50:14;;;;;;;3.08;1.73;;;;;;;;;;5056514;28;20029;-26
2023/04/04 11:52:44;;;;;;;5.32;1.45;;;;;;;;;;5056424;28;20032;-26
2023/04/04 11:55:18;;;;;;;6.95;2.47;;;;;;;;;;5056477;28;20017;-25
2023/04/04 11:57:52;;;;;;;5.10;1.67;;;;;;;;;;5056525;28;20028;-25
2023/04/04 12:00:31;;;;;;;6.00;2.05;;;;;;;;;;5056345;28;20110;-25
2023/04/04 12:02:58;;;;;;;10.65;2.17;;;;;;;;;;5056432;28;20368;-25
2023/04/04 12:05:24;;;;;;;9.05;2.60;;;;;;;;;;5056213;28;20040;-26
2023/04/04 12:07:51;;;;;;;6.47;2.42;;;;;;;;;;5056453;28;20332;-25
2023/04/04 12:10:18;;;;;;;4.53;2.10;;;;;;;;;;5056251;28;20406;-25
2023/04/04 12:12:45;;;;;;;5.93;1.88;;;;;;;;;;5038646;28;20100;-25
2023/04/04 12:15:14;;;;;;;6.55;2.00;;;;;;;;;;5056711;28;20443;-26
2023/04/04 12:17:42;;;;;;;4.35;2.22;;;;;;;;;;5056389;28;20029;-25
2023/04/04 12:20:11;;;;;;;5.93;2.10;;;;;;;;;;5056603;28;20091;-25
2023/04/04 12:22:38;;;;;;;7.07;3.90;;;;;;;;;;5056309;28;20033;-25
2023/04/04 12:25:05;;;;;;;9.23;4.10;;;;;;;;;;5056080;28;20025;-25
2023/04/04 12:27:31;;;;;;;11.98;2.17;;;;;;;;;;5055907;28;20032;-25
2023/04/04 12:29:59;;;;;;;5.28;1.60;;;;;;;;;;5055839;28;20100;-25
2023/04/04 12:32:26;;;;;;;3.72;1.42;;;;;;;;;;5056220;28;20032;-25
2023/04/04 12:34:52;;;;;;;7.72;1.90;;;;;;;;;;5055805;28;20093;-25
2023/04/04 12:37:21;;;;;;;10.65;2.10;;;;;;;;;;5055837;28;20447;-26
2023/04/04 12:39:48;;;;;;;5.50;2.15;;;;;;;;;;5055804;28;20056;-25
2023/04/04 12:42:20;;;;;;;6.65;1.80;;;;;;;;;;5055348;28;20025;-25
2023/04/04 12:44:47;;;;;;;7.88;1.98;;;;;;;;;;5055615;28;20044;-25
2023/04/04 12:47:16;;;;;;;6.40;2.42;;;;;;;;;;5055551;28;20086;-25
2023/04/04 12:49:44;;;;;;;4.07;2.25;;;;;;;;;;5055609;28;20029;-25
2023/04/04 12:52:17;;;;;;;5.90;2.25;;;;;;;;;;5055252;28;20092;-26
2023/04/04 12:54:43;;;;;;;6.20;2.22;;;;;;;;;;5055549;28;20021;-25
2023/04/04 12:57:11;;;;;;;9.98;2.78;;;;;;;;;;5055503;28;20096;-25
2023/04/04 12:59:38;;;;;;;10.60;2.25;;;;;;;;;;5037615;28;20032;-25
2023/04/04 13:02:08;;;;;;;6.82;1.98;;;;;;;;;;5055106;28;20029;-26
2023/04/04 13:04:34;;;;;;;10.40;2.20;;;;;;;;;;5055258;28;20017;-25
2023/04/04 13:07:02;;;;;;;9.30;3.03;;;;;;;;;;5055035;28;20063;-25
2023/04/04 13:09:28;;;;;;;6.63;1.98;;;;;;;;;;5055241;28;20033;-25
2023/04/04 13:12:01;;;;;;;7.45;1.83;;;;;;;;;;5055298;28;20424;-26
2023/04/04 13:14:46;;;;;;;7.47;2.22;;;;;;;;;;5054893;28;20104;-25
2023/04/04 13:17:13;;;;;;;5.93;1.98;;;;;;;;;;5054834;28;20029;-26
2023/04/04 13:19:39;;;;;;;7.85;2.03;;;;;;;;;;5055385;28;20017;-25
2023/04/04 13:22:07;;;;;;;5.35;1.90;;;;;;;;;;5055082;28;20462;-25
2023/04/04 13:24:33;;;;;;;5.32;2.08;;;;;;;;;;5054897;28;20025;-26
2023/04/04 13:27:00;;;;;;;3.90;1.58;;;;;;;;;;5054797;28;20049;-25
2023/04/04 13:29:26;;;;;;;4.80;1.98;;;;;;;;;;5054526;28;20025;-30
2023/04/04 13:31:52;;;;;;;7.15;1.58;;;;;;;;;;5054443;28;20025;-25
2023/04/04 13:34:21;;;;;;;8.90;2.25;;;;;;;;;;5054380;28;20028;-25
2023/04/04 13:36:47;;;;;;;3.80;2.08;;;;;;;;;;5054460;28;20430;-25
2023/04/04 13:39:13;;;;;;;7.13;1.88;;;;;;;;;;5036997;28;20021;-25
2023/04/04 13:41:39;;;;;;;4.75;1.65;;;;;;;;;;5054625;28;20380;-25
2023/04/04 13:44:06;;;;;;;9.00;2.17;;;;;;;;;;5054319;28;20061;-26
2023/04/04 13:46:32;;;;;;;2.60;1.52;;;;;;;;;;5054551;28;20021;-26
2023/04/04 13:48:58;;;;;;;5.28;1.95;;;;;;;;;;5036900;28;20087;-25
2023/04/04 13:51:25;;;;;;;7.30;2.35;;;;;;;;;;5054320;28;20116;-25
2023/04/04 13:53:51;;;;;;;7.75;2.20;;;;;;;;;;5036860;28;20032;-25
2023/04/04 13:56:17;;;;;;;3.38;1.58;;;;;;;;;;5054452;28;20195;-26
2023/04/04 13:58:43;;;;;;;9.32;1.88;;;;;;;;;;5054176;28;20168;-25
2023/04/04 14:01:10;;;;;;;8.57;2.30;;;;;;;;;;5054228;28;20025;-26
2023/04/04 14:03:36;;;;;;;5.40;1.90;;;;;;;;;;5053956;28;20028;-25
2023/04/04 14:06:03;;;;;;;7.68;2.20;;;;;;;;;;5036566;28;20044;-25
2023/04/04 14:08:29;;;;;;;4.70;2.42;;;;;;;;;;5054002;28;20505;-25
2023/04/04 14:10:55;;;;;;;13.52;2.47;;;;;;;;;;5054254;28;20025;-25
2023/04/04 14:13:21;;;;;;;6.95;1.73;;;;;;;;;;5054148;28;20021;-25
2023/04/04 14:15:49;;;;;;;9.68;2.13;;;;;;;;;;5054467;28;20340;-25
2023/04/04 14:18:15;;;;;;;3.08;2.00;;;;;;;;;;5053948;28;20025;-26
2023/04/04 14:20:41;;;;;;;7.22;1.85;;;;;;;;;;5036433;28;20025;-25
2023/04/04 14:23:08;;;;;;;6.38;2.13;;;;;;;;;;5054068;28;20033;-25
2023/04/04 14:25:34;;;;;;;8.18;2.40;;;;;;;;;;5054378;28;20049;-25
2023/04/04 14:28:00;;;;;;;8.55;2.03;;;;;;;;;;5036370;28;20032;-25
2023/04/04 14:30:27;;;;;;;4.20;2.05;;;;;;;;;;5054046;28;20071;-25
2023/04/04 14:32:53;;;;;;;6.22;2.03;;;;;;;;;;5054261;28;20036;-25
2023/04/04 14:35:20;;;;;;;2.13;1.40;;;;;;;;;;5053927;28;20114;-25
2023/04/04 14:37:46;;;;;;;6.82;2.30;;;;;;;;;;5054141;28;20043;-25
2023/04/04 14:40:12;;;;;;;5.78;2.53;;;;;;;;;;5054207;28;20029;-25
2023/04/04 14:42:38;;;;;;;3.95;2.10;;;;;;;;;;5053704;28;20498;-26
2023/04/04 14:45:06;;;;;;;6.70;2.42;;;;;;;;;;5054260;28;20040;-25
2023/04/04 14:47:36;;;;;;;5.60;1.92;;;;;;;;;;5053800;28;20033;-25
2023/04/04 14:50:03;;;;;;;5.88;2.28;;;;;;;;;;5053717;28;20031;-26
2023/04/04 14:52:29;;;;;;;8.10;2.38;;;;;;;;;;5053827;28;20025;-25
2023/04/04 14:54:56;;;;;;;8.23;3.00;;;;;;;;;;5053941;28;20518;-26
2023/04/04 14:57:22;;;;;;;3.83;1.90;;;;;;;;;;5053753;28;20094;-25
2023/04/04 14:59:48;;;;;;;8.68;2.80;;;;;;;;;;5054604;28;20087;-25
2023/04/04 15:02:15;;;;;;;8.35;2.10;;;;;;;;;;5054132;28;20037;-25
2023/04/04 15:04:41;;;;;;;6.15;2.30;;;;;;;;;;5054058;28;20100;-25